Time;durP1;ratioP1;P1;durP2;ratioP2;P2;SDS_P1;SDS_P2;PMS_P1;PMS_P2;Temp;Humidity;BMP_temperature;BMP_pressure;BME280_temperature;BME280_humidity;BME280_pressure;Samples;Min_cycle;Max_cycle;Signal;HPM_P1;HPM_P2
2022/12/06 00:02:51;;;;;;;51.70;33.10;;;;;;;4.55;92.26;99009.95;2277027;78;21366;-84
2022/12/06 00:05:51;;;;;;;56.57;33.83;;;;;;;4.53;92.40;99006.43;2277259;78;20903;-83
2022/12/06 00:08:51;;;;;;;52.20;33.83;;;;;;;4.49;92.55;99008.02;2277207;78;20883;-84
2022/12/06 00:11:52;;;;;;;55.13;32.53;;;;;;;4.45;92.64;99000.56;2277580;78;20996;-85
2022/12/06 00:14:52;;;;;;;57.47;33.53;;;;;;;4.41;92.72;98992.22;2276988;78;20871;-82
2022/12/06 00:17:53;;;;;;;49.13;32.17;;;;;;;4.38;92.93;98989.52;2280246;78;20894;-84
2022/12/06 00:20:53;;;;;;;53.60;34.73;;;;;;;4.41;93.17;98993.92;2280578;78;20922;-83
2022/12/06 00:23:54;;;;;;;54.43;33.20;;;;;;;4.43;93.39;98989.69;2280001;78;21334;-84
2022/12/06 00:26:54;;;;;;;52.97;33.50;;;;;;;4.44;93.27;98985.88;2280129;78;20918;-84
2022/12/06 00:29:54;;;;;;;56.50;35.40;;;;;;;4.45;93.38;98982.47;2280117;78;20903;-84
2022/12/06 00:32:55;;;;;;;53.47;33.40;;;;;;;4.49;93.45;98983.46;2280229;78;20910;-83
2022/12/06 00:35:55;;;;;;;51.73;33.27;;;;;;;4.53;93.20;98981.88;2280524;78;20898;-83
2022/12/06 00:38:56;;;;;;;54.97;33.30;;;;;;;4.53;93.32;98985.34;2280045;78;20906;-83
2022/12/06 00:41:56;;;;;;;56.37;34.63;;;;;;;4.55;93.23;98984.11;2280034;78;21274;-83
2022/12/06 00:44:56;;;;;;;56.37;35.30;;;;;;;4.55;93.29;98984.11;2279956;78;20922;-82
2022/12/06 00:47:57;;;;;;;53.90;33.60;;;;;;;4.56;93.18;98984.16;2279980;78;20898;-83
2022/12/06 00:50:57;;;;;;;52.20;33.70;;;;;;;4.58;93.25;98980.34;2280145;78;20891;-83
2022/12/06 00:53:58;;;;;;;57.03;34.03;;;;;;;4.59;93.24;98975.64;2280254;78;20879;-84
2022/12/06 00:56:58;;;;;;;52.43;33.83;;;;;;;4.58;93.39;98976.47;2280066;78;20875;-84
2022/12/06 00:59:58;;;;;;;48.63;32.30;;;;;;;4.59;93.27;98986.86;2280124;78;20922;-83
2022/12/06 01:02:59;;;;;;;51.10;33.63;;;;;;;4.58;93.21;98988.09;2280080;78;20943;-82
2022/12/06 01:05:59;;;;;;;66.17;42.97;;;;;;;4.56;93.22;98980.70;2279699;78;20966;-82
2022/12/06 01:09:00;;;;;;;53.13;34.40;;;;;;;4.55;93.24;98984.98;2280302;78;20938;-84
2022/12/06 01:12:00;;;;;;;53.57;34.60;;;;;;;4.52;93.15;98978.41;2280343;78;20926;-84
2022/12/06 01:15:01;;;;;;;51.10;33.80;;;;;;;4.52;93.29;98977.52;2280037;78;20895;-85
2022/12/06 01:18:04;;;;;;;54.87;34.93;;;;;;;4.47;93.36;98970.89;2236162;80;21381;-85
2022/12/06 01:21:05;;;;;;;57.00;34.03;;;;;;;4.44;93.33;98974.24;2235460;79;20918;-85
2022/12/06 01:24:06;;;;;;;56.27;34.70;;;;;;;4.39;93.33;98964.55;2235265;80;20942;-85
2022/12/06 01:27:06;;;;;;;51.90;33.27;;;;;;;4.37;93.39;98963.20;2235512;79;20875;-84
2022/12/06 01:30:06;;;;;;;57.10;36.07;;;;;;;4.34;93.50;98963.08;2235613;79;20925;-83
2022/12/06 01:33:07;;;;;;;54.13;33.77;;;;;;;4.31;93.64;98956.89;2235226;78;20958;-83
2022/12/06 01:36:07;;;;;;;52.80;34.10;;;;;;;4.30;93.65;98948.66;2235783;79;21012;-84
2022/12/06 01:39:09;;;;;;;56.17;35.03;;;;;;;4.22;93.54;98945.79;2235433;79;20910;-83
2022/12/06 01:42:08;;;;;;;60.33;37.27;;;;;;;4.22;93.76;98949.66;2235367;78;20890;-83
2022/12/06 01:45:08;;;;;;;55.80;34.37;;;;;;;4.22;94.00;98939.33;2235386;80;20977;-83
2022/12/06 01:48:09;;;;;;;57.50;36.43;;;;;;;4.24;93.98;98941.56;2235464;79;21302;-82
2022/12/06 01:51:09;;;;;;;53.37;35.47;;;;;;;4.25;94.00;98939.45;2235127;79;20926;-83
2022/12/06 01:54:09;;;;;;;60.00;36.87;;;;;;;4.25;93.98;98932.11;2235169;79;20953;-83
2022/12/06 01:57:10;;;;;;;59.43;37.07;;;;;;;4.28;94.14;98926.64;2235294;79;20918;-82
2022/12/06 02:00:10;;;;;;;56.67;37.20;;;;;;;4.27;93.92;98924.88;2235448;79;20906;-83
2022/12/06 02:03:11;;;;;;;56.47;35.00;;;;;;;4.21;93.68;98918.19;2235658;79;20914;-84
2022/12/06 02:06:11;;;;;;;54.13;35.80;;;;;;;4.21;93.68;98918.19;2235554;79;20973;-83
2022/12/06 02:09:12;;;;;;;56.30;36.10;;;;;;;4.18;93.89;98919.36;2235602;80;20913;-83
2022/12/06 02:12:12;;;;;;;57.27;38.00;;;;;;;4.16;93.89;98915.84;2235301;79;20913;-83
2022/12/06 02:15:12;;;;;;;57.50;37.57;;;;;;;4.14;94.03;98903.28;2235656;78;20933;-84
2022/12/06 02:18:13;;;;;;;62.23;36.87;;;;;;;4.08;94.08;98895.30;2235739;79;20944;-84
2022/12/06 02:21:13;;;;;;;61.40;37.83;;;;;;;3.99;94.14;98894.95;2235366;79;20958;-83
2022/12/06 02:24:14;;;;;;;59.83;36.90;;;;;;;3.94;94.36;98896.47;2235384;79;20976;-84
2022/12/06 02:27:14;;;;;;;61.67;37.10;;;;;;;3.95;94.60;98904.69;2235151;79;20875;-84
2022/12/06 02:30:17;;;;;;;57.87;36.43;;;;;;;3.95;94.65;98896.94;2235284;79;20910;-84
2022/12/06 02:33:15;;;;;;;56.40;36.07;;;;;;;3.95;94.73;98893.95;2235212;79;20914;-84
2022/12/06 02:36:15;;;;;;;59.97;36.97;;;;;;;3.99;94.82;98893.25;2234809;79;20997;-84
2022/12/06 02:39:16;;;;;;;62.73;36.43;;;;;;;3.99;94.64;98889.78;2235200;80;20965;-83
2022/12/06 02:42:16;;;;;;;61.23;37.80;;;;;;;3.97;94.70;98887.55;2235235;79;20902;-83
2022/12/06 02:45:17;;;;;;;60.43;37.50;;;;;;;3.99;94.83;98886.78;2235119;79;21380;-85
2022/12/06 02:48:17;;;;;;;59.00;36.00;;;;;;;3.99;94.75;98872.58;2235262;80;21076;-84
2022/12/06 02:51:17;;;;;;;51.60;35.20;;;;;;;4.09;94.98;98875.09;2235275;79;21262;-83
2022/12/06 02:54:18;;;;;;;61.13;36.60;;;;;;;4.14;94.81;98871.86;2235016;79;20917;-83
2022/12/06 02:57:18;;;;;;;60.57;36.73;;;;;;;4.20;94.74;98866.45;2235296;79;20910;-83
2022/12/06 03:00:19;;;;;;;61.07;35.97;;;;;;;4.22;94.54;98857.94;2235140;79;20950;-83
2022/12/06 03:03:19;;;;;;;60.83;37.50;;;;;;;4.24;94.34;98861.46;2235399;79;21230;-83
2022/12/06 03:06:19;;;;;;;56.47;36.17;;;;;;;4.24;94.33;98857.59;2234950;79;20969;-80
2022/12/06 03:09:20;;;;;;;58.03;35.73;;;;;;;4.27;94.25;98855.11;2234980;79;20914;-82
2022/12/06 03:12:20;;;;;;;103.27;64.77;;;;;;;4.30;94.49;98855.64;2235091;79;20918;-82
2022/12/06 03:15:21;;;;;;;56.47;37.93;;;;;;;4.30;94.30;98855.23;2235343;79;20874;-85
2022/12/06 03:18:21;;;;;;;65.30;37.63;;;;;;;4.31;94.12;98854.40;2234734;78;21301;-84
2022/12/06 03:21:21;;;;;;;57.10;36.57;;;;;;;4.34;94.01;98849.79;2235146;80;20910;-84
2022/12/06 03:24:22;;;;;;;56.77;36.23;;;;;;;4.35;94.03;98847.27;2234916;79;21025;-83
2022/12/06 03:27:22;;;;;;;56.90;34.67;;;;;;;4.33;94.03;98841.13;2235330;79;20934;-83
2022/12/06 03:30:26;;;;;;;58.77;36.47;;;;;;;4.34;93.97;98844.63;2235259;79;20945;-83
2022/12/06 03:33:25;;;;;;;56.80;35.83;;;;;;;4.33;93.89;98840.25;2213236;80;20895;-84
2022/12/06 03:36:25;;;;;;;54.70;34.77;;;;;;;4.29;93.81;98837.96;2234878;79;20957;-83
2022/12/06 03:39:26;;;;;;;59.13;36.00;;;;;;;4.27;93.85;98827.98;2235393;79;20887;-83
2022/12/06 03:42:31;;;;;;;58.67;36.33;;;;;;;4.24;93.66;98826.58;2235182;79;20898;-82
2022/12/06 03:45:29;;;;;;;56.97;37.57;;;;;;;4.25;93.87;98824.46;2212283;80;20941;-82
2022/12/06 03:48:29;;;;;;;61.17;34.47;;;;;;;4.24;93.79;98815.36;2234654;79;20945;-84
2022/12/06 03:51:29;;;;;;;51.70;33.77;;;;;;;4.19;94.03;98808.73;2236003;79;20910;-85
2022/12/06 03:54:30;;;;;;;49.63;33.00;;;;;;;4.16;93.91;98799.17;2236514;79;20945;-85
2022/12/06 03:57:30;;;;;;;50.37;33.57;;;;;;;4.16;94.01;98806.05;2236546;79;20907;-85
2022/12/06 04:00:32;;;;;;;47.60;31.63;;;;;;;4.08;94.03;98803.59;2235862;79;20905;-84
2022/12/06 04:03:32;;;;;;;48.60;32.33;;;;;;;3.96;94.10;98794.98;2236226;79;20973;-84
2022/12/06 04:06:32;;;;;;;55.87;34.03;;;;;;;3.93;94.51;98799.16;2235667;79;20969;-85
2022/12/06 04:09:51;;;;;;;47.53;31.43;;;;;;;3.89;94.60;98792.13;2235233;80;20918;-84
2022/12/06 04:13:00;;;;;;;54.57;32.97;;;;;;;3.83;94.82;98786.32;2235354;79;20902;-84
2022/12/06 04:16:01;;;;;;;53.30;34.10;;;;;;;3.76;95.04;98774.87;2235278;78;21298;-85
2022/12/06 04:19:01;;;;;;;46.63;31.00;;;;;;;3.73;95.17;98768.31;2235775;79;20894;-84
2022/12/06 04:25:20;;;;;;;49.50;31.63;;;;;;;3.68;95.65;98775.42;2235378;80;20937;-84
2022/12/06 04:44:54;;;;;;;50.80;32.73;;;;;;;3.42;97.30;98738.27;2234306;80;20949;-82
2022/12/06 04:47:54;;;;;;;50.13;32.90;;;;;;;3.39;97.16;98730.41;2234135;80;20898;-79
2022/12/06 04:50:54;;;;;;;52.53;33.30;;;;;;;3.46;97.20;98728.12;2234310;79;20890;-83
2022/12/06 04:53:55;;;;;;;47.00;31.57;;;;;;;3.46;97.20;98728.12;2234013;80;20914;-83
2022/12/06 04:56:56;;;;;;;48.63;32.27;;;;;;;3.51;97.19;98729.20;2233449;79;20934;-82
2022/12/06 04:59:56;;;;;;;46.43;31.60;;;;;;;3.50;97.13;98717.12;2233695;79;20914;-81
2022/12/06 05:02:56;;;;;;;53.10;34.13;;;;;;;3.53;97.31;98715.48;2233766;79;20918;-83
2022/12/06 05:05:57;;;;;;;47.03;32.10;;;;;;;3.54;97.31;98711.66;2233849;79;21024;-81
2022/12/06 05:08:57;;;;;;;49.30;31.60;;;;;;;3.53;97.01;98709.91;2233148;79;20937;-81
2022/12/06 05:11:57;;;;;;;47.10;30.93;;;;;;;3.52;97.23;98697.83;2233673;79;20913;-82
2022/12/06 05:14:58;;;;;;;49.70;31.43;;;;;;;3.56;97.37;98697.12;2233674;79;20969;-85
2022/12/06 05:17:58;;;;;;;49.37;30.53;;;;;;;3.63;97.59;98695.23;2233338;78;21345;-83
2022/12/06 05:20:59;;;;;;;45.20;30.47;;;;;;;3.90;97.66;98699.63;2233542;79;20914;-80
2022/12/06 05:23:59;;;;;;;61.17;38.37;;;;;;;3.89;97.02;98705.20;2233157;79;20917;-81
2022/12/06 05:26:59;;;;;;;47.60;31.77;;;;;;;3.87;96.88;98710.72;2232185;79;20906;-83
2022/12/06 05:30:00;;;;;;;46.53;29.87;;;;;;;3.90;96.78;98709.54;2232756;79;20894;-81
2022/12/06 05:33:00;;;;;;;46.20;31.00;;;;;;;3.91;96.68;98712.59;2233473;79;20945;-82
2022/12/06 05:36:01;;;;;;;47.53;30.50;;;;;;;3.92;96.47;98705.72;2233483;79;20970;-81
2022/12/06 05:39:01;;;;;;;43.93;29.53;;;;;;;3.94;96.50;98699.79;2233647;79;21267;-82
2022/12/06 05:42:02;;;;;;;42.43;28.50;;;;;;;3.98;96.48;98703.36;2232887;79;20953;-83
2022/12/06 05:45:02;;;;;;;41.87;29.27;;;;;;;3.99;96.30;98699.54;2232561;79;20934;-83
2022/12/06 05:48:02;;;;;;;45.20;29.17;;;;;;;4.00;96.21;98700.00;2232290;79;20910;-83
2022/12/06 05:51:03;;;;;;;42.07;28.13;;;;;;;4.05;96.23;98704.04;2232871;79;20930;-82
2022/12/06 05:54:05;;;;;;;46.53;29.83;;;;;;;4.06;96.25;98710.97;2233421;80;20943;-83
2022/12/06 05:57:04;;;;;;;45.63;28.07;;;;;;;4.09;96.22;98702.91;2233689;80;20969;-84
2022/12/06 06:00:04;;;;;;;42.27;28.10;;;;;;;4.10;96.00;98698.20;2233703;79;20883;-83
2022/12/06 06:03:04;;;;;;;60.80;40.73;;;;;;;4.13;95.88;98707.77;2233507;79;20934;-81
2022/12/06 06:06:05;;;;;;;54.90;37.50;;;;;;;4.15;95.83;98707.00;2233725;80;20969;-83
2022/12/06 06:09:05;;;;;;;40.87;28.57;;;;;;;4.16;95.71;98710.05;2233796;79;20926;-79
2022/12/06 06:12:06;;;;;;;39.60;26.67;;;;;;;4.19;95.72;98709.27;2235559;80;20973;-79
2022/12/06 06:15:06;;;;;;;41.33;26.43;;;;;;;4.20;95.65;98706.27;2234969;80;20906;-80
2022/12/06 06:18:07;;;;;;;36.30;25.60;;;;;;;4.18;95.40;98699.77;2234637;78;21004;-80
2022/12/06 06:21:07;;;;;;;37.43;25.57;;;;;;;4.16;95.19;98701.42;2233755;79;21225;-80
2022/12/06 06:24:07;;;;;;;36.43;24.93;;;;;;;4.15;95.08;98699.66;2233859;79;20922;-81
2022/12/06 06:27:08;;;;;;;33.90;23.97;;;;;;;4.09;94.74;98692.58;2234521;79;20898;-79
2022/12/06 06:30:08;;;;;;;28.80;21.83;;;;;;;4.03;94.98;98687.20;2234157;80;20922;-83
2022/12/06 06:33:09;;;;;;;31.23;21.43;;;;;;;4.00;94.86;98693.95;2233562;80;20961;-83
2022/12/06 06:36:09;;;;;;;30.53;21.53;;;;;;;3.96;94.76;98692.09;2233005;79;20980;-81
2022/12/06 06:39:09;;;;;;;31.10;21.70;;;;;;;3.89;94.87;98692.70;2232818;79;20949;-81
2022/12/06 06:42:10;;;;;;;30.43;21.50;;;;;;;3.84;94.85;98686.09;2232801;79;20914;-81
2022/12/06 06:45:10;;;;;;;54.90;33.37;;;;;;;3.83;95.11;98686.91;2232660;79;20982;-83
2022/12/06 06:48:11;;;;;;;31.90;22.87;;;;;;;3.82;95.11;98688.61;2232882;79;20910;-83
2022/12/06 06:51:11;;;;;;;30.10;21.67;;;;;;;3.86;95.29;98684.84;2233549;79;20937;-84
2022/12/06 06:54:12;;;;;;;32.13;22.63;;;;;;;3.88;95.20;98696.11;2234007;79;20961;-84
2022/12/06 06:57:12;;;;;;;36.53;22.43;;;;;;;3.91;95.20;98701.38;2233225;80;20973;-83
2022/12/06 07:00:13;;;;;;;32.73;23.10;;;;;;;3.90;95.09;98697.05;2233021;80;21002;-81
2022/12/06 07:03:14;;;;;;;33.37;22.37;;;;;;;3.91;95.19;98691.94;2233111;79;21309;-83
2022/12/06 07:06:14;;;;;;;33.20;22.27;;;;;;;3.90;95.03;98691.88;2233550;80;21001;-83
2022/12/06 07:09:14;;;;;;;33.30;22.10;;;;;;;3.90;94.95;98686.72;2233097;79;20906;-83
2022/12/06 07:12:15;;;;;;;34.20;22.47;;;;;;;3.89;95.02;98685.84;2232833;79;20974;-84
2022/12/06 07:15:15;;;;;;;33.40;23.00;;;;;;;3.90;95.14;98686.30;2232896;79;20914;-83
2022/12/06 07:18:16;;;;;;;33.30;22.27;;;;;;;3.89;95.05;98686.25;2260860;78;21291;-82
2022/12/06 07:21:16;;;;;;;33.43;21.90;;;;;;;3.90;95.02;98681.55;2276493;78;20922;-84
2022/12/06 07:24:17;;;;;;;35.33;22.40;;;;;;;3.90;95.17;98674.68;2276972;78;20957;-84
2022/12/06 07:27:17;;;;;;;33.73;22.73;;;;;;;3.97;95.03;98678.36;2277778;78;21314;-83
2022/12/06 07:30:17;;;;;;;34.33;23.93;;;;;;;4.00;95.01;98677.17;2277866;78;20997;-83
2022/12/06 07:33:18;;;;;;;32.20;22.17;;;;;;;4.03;95.02;98683.73;2277358;78;20895;-81
2022/12/06 07:36:18;;;;;;;34.57;22.07;;;;;;;4.04;94.96;98686.38;2277554;78;20972;-82
2022/12/06 07:39:19;;;;;;;30.80;21.63;;;;;;;4.08;95.07;98684.36;2277702;78;20915;-82
2022/12/06 07:45:38;;;;;;;35.73;24.13;;;;;;;4.09;94.80;98676.20;2278028;78;20930;-84
2022/12/06 07:48:38;;;;;;;36.03;22.67;;;;;;;4.10;94.77;98675.37;2277968;78;20935;-83
2022/12/06 07:51:38;;;;;;;30.60;21.47;;;;;;;4.07;94.50;98669.69;2278262;78;20907;-84
2022/12/06 07:54:40;;;;;;;34.40;22.47;;;;;;;4.05;94.51;98664.00;2279097;78;20910;-84
2022/12/06 07:57:39;;;;;;;30.40;20.47;;;;;;;4.08;95.00;98658.95;2278957;78;20899;-83
2022/12/06 08:00:40;;;;;;;29.10;20.37;;;;;;;4.12;94.78;98649.18;2278579;78;20927;-82
2022/12/06 08:03:40;;;;;;;31.87;22.07;;;;;;;4.10;94.56;98638.80;2278714;78;20961;-84
2022/12/06 08:06:41;;;;;;;29.43;21.23;;;;;;;4.10;94.76;98645.67;2279179;78;21394;-84
2022/12/06 08:09:41;;;;;;;31.07;21.10;;;;;;;4.07;94.67;98639.98;2278050;78;21109;-82
2022/12/06 08:12:41;;;;;;;32.17;21.67;;;;;;;4.05;94.72;98633.89;2279335;78;20907;-84
2022/12/06 08:15:42;;;;;;;30.30;20.83;;;;;;;4.04;94.84;98625.67;2279607;78;21290;-85
2022/12/06 08:18:42;;;;;;;24.33;18.40;;;;;;;4.06;94.87;98629.60;2278138;78;20946;-84
2022/12/06 08:21:43;;;;;;;29.03;20.43;;;;;;;4.09;94.81;98628.41;2279040;78;20913;-81
2022/12/06 08:24:43;;;;;;;28.27;18.20;;;;;;;4.08;94.79;98627.95;2279598;78;20914;-83
2022/12/06 08:27:43;;;;;;;25.83;18.40;;;;;;;4.09;94.64;98629.30;2279521;78;20899;-84
2022/12/06 08:30:44;;;;;;;33.43;21.10;;;;;;;4.06;94.38;98630.89;2279576;78;20875;-85
2022/12/06 08:33:44;;;;;;;29.97;19.23;;;;;;;4.35;95.99;98631.48;2277913;78;21062;-83
2022/12/06 08:36:45;;;;;;;25.83;19.10;;;;;;;4.36;95.00;98629.77;2278386;78;20934;-85
2022/12/06 08:39:45;;;;;;;23.10;17.03;;;;;;;4.31;94.62;98627.01;2277540;78;20907;-84
2022/12/06 08:42:45;;;;;;;24.53;18.33;;;;;;;4.25;94.32;98625.52;2277220;78;20911;-85
2022/12/06 08:45:46;;;;;;;25.80;18.47;;;;;;;4.22;94.37;98627.99;2278012;78;20985;-85
2022/12/06 08:48:46;;;;;;;24.87;17.87;;;;;;;4.22;94.51;98625.41;2277498;78;21688;-83
2022/12/06 08:51:47;;;;;;;26.93;17.70;;;;;;;4.24;94.37;98624.17;2277487;78;20954;-84
2022/12/06 08:54:47;;;;;;;25.17;17.53;;;;;;;4.20;94.21;98627.06;2277676;78;21040;-83
2022/12/06 08:57:48;;;;;;;21.50;16.53;;;;;;;4.22;94.57;98625.41;2277159;78;20909;-84
2022/12/06 09:00:48;;;;;;;21.10;16.10;;;;;;;4.24;94.45;98625.46;2276769;78;20899;-84
2022/12/06 09:03:48;;;;;;;23.50;17.37;;;;;;;4.24;94.15;98620.30;2277158;78;20891;-85
2022/12/06 09:06:49;;;;;;;22.20;16.47;;;;;;;4.24;94.49;98616.42;2276414;78;21338;-80
2022/12/06 09:09:49;;;;;;;27.73;17.37;;;;;;;4.25;94.25;98616.47;2277645;78;20902;-84
2022/12/06 09:12:50;;;;;;;23.17;16.77;;;;;;;4.24;94.44;98608.25;2278029;78;20903;-83
2022/12/06 09:15:50;;;;;;;22.60;16.53;;;;;;;4.22;94.24;98600.87;2277926;78;20943;-82
2022/12/06 09:18:50;;;;;;;22.43;15.67;;;;;;;4.20;94.14;98605.11;2275206;78;20938;-84
2022/12/06 09:21:51;;;;;;;24.43;16.53;;;;;;;4.22;94.29;98600.87;2273963;78;20918;-84
2022/12/06 09:24:51;;;;;;;19.13;15.30;;;;;;;4.23;94.39;98586.24;2274163;78;20981;-84
2022/12/06 09:27:52;;;;;;;25.03;16.10;;;;;;;4.25;94.45;98586.76;2273209;78;20971;-83
2022/12/06 09:30:52;;;;;;;21.37;16.17;;;;;;;4.23;94.32;98585.83;2273327;78;20875;-84
2022/12/06 09:33:52;;;;;;;20.73;15.67;;;;;;;4.22;94.12;98580.61;2273884;78;21318;-84
2022/12/06 09:36:53;;;;;;;85.93;58.23;;;;;;;4.23;94.26;98580.66;2273093;78;21021;-83
2022/12/06 09:39:54;;;;;;;25.73;19.30;;;;;;;4.24;94.11;98576.37;2273755;78;20930;-83
2022/12/06 09:42:54;;;;;;;20.67;15.33;;;;;;;4.22;94.09;98579.32;2273622;78;20883;-85
2022/12/06 09:45:54;;;;;;;19.27;14.67;;;;;;;4.21;94.20;98568.52;2274238;78;20942;-86
2022/12/06 09:48:55;;;;;;;22.70;14.93;;;;;;;4.21;94.33;98566.81;2273930;78;21331;-85
2022/12/06 09:51:55;;;;;;;22.47;16.13;;;;;;;4.23;94.53;98568.16;2274521;78;21238;-84
2022/12/06 09:54:55;;;;;;;19.07;14.30;;;;;;;4.35;95.00;98565.59;2274949;78;20942;-83
2022/12/06 09:57:56;;;;;;;16.37;13.23;;;;;;;4.39;94.55;98566.14;2274869;78;20927;-84
2022/12/06 10:00:56;;;;;;;15.13;12.53;;;;;;;4.37;94.12;98562.63;2275392;78;20934;-84
2022/12/06 10:03:57;;;;;;;17.90;13.17;;;;;;;4.38;94.02;98559.64;2274106;78;20969;-84
2022/12/06 10:06:57;;;;;;;15.27;12.30;;;;;;;4.38;94.17;98547.59;2274933;78;20974;-83
2022/12/06 10:10:09;;;;;;;16.27;12.17;;;;;;;4.44;93.87;98545.20;2274952;78;21002;-86
2022/12/06 10:13:01;;;;;;;14.43;11.50;;;;;;;4.50;93.96;98547.09;2251033;78;21303;-83
2022/12/06 10:16:02;;;;;;;12.83;10.30;;;;;;;4.54;94.25;98546.36;2274181;78;20911;-83
2022/12/06 10:19:02;;;;;;;12.87;10.27;;;;;;;4.58;93.88;98533.11;2274269;78;20958;-85
2022/12/06 10:22:02;;;;;;;12.47;10.20;;;;;;;4.59;93.80;98537.45;2274429;78;20891;-82
2022/12/06 10:25:03;;;;;;;12.30;10.17;;;;;;;4.55;93.73;98535.61;2273546;78;20923;-83
2022/12/06 10:28:03;;;;;;;12.87;10.57;;;;;;;4.55;94.02;98524.84;2273527;78;21326;-82
2022/12/06 10:31:03;;;;;;;12.23;10.77;;;;;;;4.55;93.71;98523.97;2273830;78;21013;-82
2022/12/06 10:34:04;;;;;;;15.70;11.47;;;;;;;4.53;93.93;98526.52;2273632;78;20942;-82
2022/12/06 10:37:04;;;;;;;13.73;10.93;;;;;;;4.52;93.93;98526.47;2273206;78;21383;-82
2022/12/06 10:40:05;;;;;;;13.57;11.43;;;;;;;4.47;93.80;98526.33;2273920;78;20891;-81
2022/12/06 10:43:05;;;;;;;16.57;12.97;;;;;;;4.52;94.21;98517.42;2273963;78;21301;-82
2022/12/06 10:49:24;;;;;;;17.50;12.93;;;;;;;4.51;93.87;98506.62;2274181;78;20906;-81
2022/12/06 10:52:25;;;;;;;19.93;14.00;;;;;;;4.52;93.94;98503.20;2274169;78;20895;-82
2022/12/06 10:55:25;;;;;;;17.60;13.03;;;;;;;4.53;94.06;98504.95;2273813;78;20938;-81
2022/12/06 10:58:26;;;;;;;17.23;12.80;;;;;;;4.54;93.90;98502.42;2273371;78;20931;-81
2022/12/06 11:01:27;;;;;;;35.40;17.53;;;;;;;4.53;93.74;98495.91;2275095;78;20915;-81
2022/12/06 11:04:26;;;;;;;19.43;14.07;;;;;;;4.55;94.32;98494.25;2273723;78;20936;-82
2022/12/06 11:07:27;;;;;;;16.47;13.37;;;;;;;4.56;93.96;98492.13;2272661;78;21045;-82
2022/12/06 11:10:27;;;;;;;17.17;14.33;;;;;;;4.55;93.92;98494.25;2272715;78;20902;-81
2022/12/06 11:13:28;;;;;;;15.03;12.70;;;;;;;4.55;93.85;98492.54;2273202;78;21318;-82
2022/12/06 11:16:28;;;;;;;17.93;13.80;;;;;;;4.52;93.80;98493.73;2273234;78;20883;-82
2022/12/06 11:19:29;;;;;;;16.03;12.43;;;;;;;4.49;93.67;98493.65;2273771;78;20983;-81
2022/12/06 11:22:30;;;;;;;16.40;13.17;;;;;;;4.48;93.62;98495.36;2273781;78;21239;-82
2022/12/06 11:25:29;;;;;;;23.13;13.87;;;;;;;4.49;94.14;98491.06;2273377;78;20954;-82
2022/12/06 11:28:30;;;;;;;21.63;14.13;;;;;;;4.52;94.10;98483.41;2272330;78;21002;-79
2022/12/06 11:31:30;;;;;;;14.20;12.33;;;;;;;4.54;94.28;98482.16;2272729;78;21323;-80
2022/12/06 11:34:30;;;;;;;21.50;12.63;;;;;;;4.54;94.16;98475.69;2272952;78;20895;-80
2022/12/06 11:37:31;;;;;;;14.57;12.33;;;;;;;4.52;93.92;98476.06;2273193;78;21023;-79
2022/12/06 11:40:31;;;;;;;14.70;12.23;;;;;;;4.45;93.68;98474.59;2273936;78;21350;-83
2022/12/06 11:43:34;;;;;;;12.60;10.80;;;;;;;4.45;94.01;98472.00;2274363;78;20891;-82
2022/12/06 11:46:32;;;;;;;12.63;10.80;;;;;;;4.42;93.72;98466.74;2274006;78;20923;-82
2022/12/06 11:49:32;;;;;;;13.27;10.47;;;;;;;4.36;93.71;98463.10;2273795;78;20906;-84
2022/12/06 11:52:33;;;;;;;12.60;11.00;;;;;;;4.33;93.90;98461.27;2274094;78;20902;-83
2022/12/06 11:55:33;;;;;;;16.03;12.53;;;;;;;4.33;94.09;98466.85;2273517;78;20903;-82
2022/12/06 11:58:34;;;;;;;16.30;13.60;;;;;;;4.31;94.04;98460.34;2273352;78;20943;-84
2022/12/06 12:01:34;;;;;;;15.90;12.77;;;;;;;4.31;94.15;98455.17;2273949;78;21606;-83
2022/12/06 12:04:35;;;;;;;17.10;13.20;;;;;;;4.33;94.12;98450.93;2273859;78;20934;-81
2022/12/06 12:07:35;;;;;;;13.40;11.30;;;;;;;4.34;94.33;98447.55;2274123;78;20963;-83
2022/12/06 12:10:37;;;;;;;12.50;11.20;;;;;;;4.38;94.03;98443.35;2274307;78;20975;-84
2022/12/06 12:13:46;;;;;;;16.37;11.70;;;;;;;4.42;94.33;98440.90;2273942;78;21534;-80
2022/12/06 12:16:46;;;;;;;18.73;12.33;;;;;;;4.45;94.19;98441.41;2273479;78;20918;-85
2022/12/06 12:19:48;;;;;;;34.67;25.17;;;;;;;4.46;94.34;98429.82;2256613;78;20939;-83
2022/12/06 12:22:48;;;;;;;89.23;59.20;;;;;;;4.51;94.36;98433.83;2286610;78;20990;-84
2022/12/06 12:25:48;;;;;;;27.23;19.80;;;;;;;4.52;94.10;98432.13;2285448;78;20950;-82
2022/12/06 12:28:49;;;;;;;19.40;14.33;;;;;;;4.52;94.21;98435.58;2284940;78;20907;-81
2022/12/06 12:31:49;;;;;;;19.83;14.93;;;;;;;4.48;94.22;98430.73;2284723;78;20958;-80
2022/12/06 12:34:49;;;;;;;19.47;13.57;;;;;;;4.49;94.06;98431.62;2286240;78;21112;-83
2022/12/06 12:37:50;;;;;;;19.77;14.57;;;;;;;4.51;94.08;98431.66;2285525;78;21037;-83
2022/12/06 12:40:50;;;;;;;21.40;15.83;;;;;;;4.50;94.18;98428.62;2285052;78;20953;-83
2022/12/06 12:43:51;;;;;;;22.50;14.90;;;;;;;4.49;94.17;98432.91;2284246;78;21236;-83
2022/12/06 12:46:51;;;;;;;16.97;14.17;;;;;;;4.49;94.21;98431.62;2284163;78;20946;-81
2022/12/06 12:49:51;;;;;;;17.87;14.43;;;;;;;4.43;93.94;98434.02;2284467;78;20883;-83
2022/12/06 12:52:55;;;;;;;17.87;14.37;;;;;;;4.36;93.99;98424.34;2285294;78;20921;-84
2022/12/06 12:55:55;;;;;;;23.83;14.43;;;;;;;4.38;94.22;98425.27;2285261;78;20941;-83
2022/12/06 12:58:56;;;;;;;17.40;12.83;;;;;;;4.36;94.32;98426.51;2284723;78;20920;-83
2022/12/06 13:01:56;;;;;;;17.90;13.23;;;;;;;4.35;94.37;98418.71;2284523;78;20906;-81
2022/12/06 13:04:56;;;;;;;18.33;13.43;;;;;;;4.29;94.44;98412.91;2284393;78;20914;-83
2022/12/06 13:07:57;;;;;;;16.73;12.93;;;;;;;4.26;94.69;98417.99;2283894;78;20953;-81
2022/12/06 13:10:57;;;;;;;15.07;13.17;;;;;;;4.25;94.75;98411.07;2283426;78;21068;-84
2022/12/06 13:13:58;;;;;;;17.13;12.27;;;;;;;4.24;94.96;98411.02;2283190;78;20898;-83
2022/12/06 13:16:58;;;;;;;17.43;12.67;;;;;;;4.26;95.10;98402.48;2281028;78;20966;-82
2022/12/06 13:19:58;;;;;;;15.37;12.90;;;;;;;4.25;95.11;98404.61;2276706;78;20966;-82
2022/12/06 13:22:59;;;;;;;15.73;13.60;;;;;;;4.25;94.95;98398.16;2274581;78;20904;-85
2022/12/06 13:25:59;;;;;;;17.93;12.87;;;;;;;4.20;94.93;98395.85;2275562;78;21480;-84
2022/12/06 13:29:00;;;;;;;20.30;13.27;;;;;;;4.21;95.25;98397.60;2275704;78;20954;-85
2022/12/06 13:32:00;;;;;;;15.70;12.00;;;;;;;4.23;97.94;98397.23;2275858;78;20946;-83
2022/12/06 13:35:01;;;;;;;14.30;12.53;;;;;;;4.57;96.18;98393.06;2276544;78;20918;-82
2022/12/06 13:38:01;;;;;;;28.03;13.93;;;;;;;4.53;95.20;98385.64;2275443;78;21735;-81
2022/12/06 13:41:01;;;;;;;14.53;12.17;;;;;;;4.49;95.11;98382.51;2277082;78;20926;-82
2022/12/06 13:44:02;;;;;;;13.93;11.83;;;;;;;4.46;95.00;98391.05;2277767;78;20951;-82
2022/12/06 13:47:02;;;;;;;14.37;11.27;;;;;;;4.38;94.94;98388.66;2277501;78;20922;-84
2022/12/06 13:50:05;;;;;;;13.43;10.83;;;;;;;4.36;95.01;98386.45;2256668;78;20867;-82
2022/12/06 13:53:05;;;;;;;12.70;10.30;;;;;;;4.44;95.40;98384.97;2276942;78;20966;-84
2022/12/06 13:56:05;;;;;;;13.27;9.30;;;;;;;4.46;95.27;98392.77;2277383;78;20958;-83
2022/12/06 13:59:06;;;;;;;12.03;9.97;;;;;;;4.46;95.16;98397.93;2277239;78;21290;-84
2022/12/06 14:02:06;;;;;;;12.17;10.13;;;;;;;4.38;95.18;98392.55;2277566;78;20915;-83
2022/12/06 14:05:06;;;;;;;10.87;9.60;;;;;;;4.34;95.25;98393.70;2277005;78;20950;-82
2022/12/06 14:08:07;;;;;;;14.97;10.87;;;;;;;4.35;95.79;98403.20;2277119;78;20993;-82
2022/12/06 14:11:07;;;;;;;12.63;9.20;;;;;;;4.34;95.67;98393.70;2276710;78;21398;-84
2022/12/06 14:14:08;;;;;;;13.40;9.20;;;;;;;4.34;95.77;98385.53;2275796;78;20907;-81
2022/12/06 14:17:08;;;;;;;10.50;9.07;;;;;;;4.37;95.91;98395.09;2275735;78;20949;-82
2022/12/06 14:20:08;;;;;;;10.70;9.57;;;;;;;4.39;96.05;98384.38;2244977;78;20957;-83
2022/12/06 14:23:09;;;;;;;10.80;9.70;;;;;;;4.37;95.86;98384.75;2229725;79;20954;-82
2022/12/06 14:26:09;;;;;;;12.33;10.43;;;;;;;4.33;95.96;98379.88;2230600;80;20941;-81